createdAt,value
2022-11-04T00:04:02.771Z,94704.53
2022-11-04T00:09:06.768Z,94718.31
2022-11-04T00:14:09.620Z,94731.78
2022-11-04T00:19:11.263Z,94726.03
2022-11-04T00:24:32.929Z,94728.09
2022-11-04T00:29:34.527Z,94716.47
2022-11-04T00:34:36.056Z,94728.59
2022-11-04T00:39:37.545Z,94717.66
2022-11-04T00:44:39.100Z,94732.22
2022-11-04T00:49:40.610Z,94733.06
2022-11-04T00:54:42.398Z,94740.53
2022-11-04T00:59:45.619Z,94743.59
2022-11-04T01:04:47.585Z,94741.19
2022-11-04T01:09:50.040Z,94750.97
2022-11-04T01:14:51.907Z,94765.94
2022-11-04T01:19:53.479Z,94777.84
2022-11-04T01:24:54.983Z,94781.78
2022-11-04T01:29:56.501Z,94787.69
2022-11-04T01:34:57.999Z,94806.75
2022-11-04T01:39:59.567Z,94791.13
2022-11-04T01:45:01.403Z,94784.09
2022-11-04T01:50:11.003Z,94805.59
2022-11-04T01:55:19.074Z,94822.88
2022-11-04T02:00:20.744Z,94820.56
2022-11-04T02:05:22.575Z,94828.50
2022-11-04T02:10:27.270Z,94823.53
2022-11-04T02:15:48.122Z,94829.16
2022-11-04T02:21:22.131Z,94840.97
2022-11-04T02:26:54.796Z,94845.69
2022-11-04T02:32:34.576Z,94832.06
2022-11-04T02:37:59.495Z,94843.44
2022-11-04T02:43:29.937Z,94838.72
2022-11-04T02:48:43.827Z,94839.84
2022-11-04T02:53:57.950Z,94840.63
2022-11-04T02:59:06.177Z,94852.78
2022-11-04T03:04:16.305Z,94854.03
2022-11-04T03:09:20.887Z,94849.84
2022-11-04T03:14:41.077Z,94866.25
2022-11-04T03:19:53.547Z,94867.88
2022-11-04T03:24:55.783Z,94875.69
2022-11-04T03:30:11.691Z,94876.44
2022-11-04T03:35:16.344Z,94875.25
2022-11-04T03:40:20.715Z,94869.00
2022-11-04T03:45:22.879Z,94865.13
2022-11-04T03:50:32.659Z,94871.47
2022-11-04T03:55:46.217Z,94876.59
2022-11-04T04:00:53.339Z,94882.06
2022-11-04T04:06:03.944Z,94876.94
2022-11-04T04:11:27.981Z,94878.13
2022-11-04T04:16:29.446Z,94874.59
2022-11-04T04:21:37.568Z,94878.06
2022-11-04T04:26:59.685Z,94872.50
2022-11-04T04:32:03.934Z,94873.25
2022-11-04T04:37:07.385Z,94874.38
2022-11-04T04:42:38.738Z,94872.78
2022-11-04T04:47:45.281Z,94877.84
2022-11-04T04:52:49.761Z,94856.69
2022-11-04T04:57:51.272Z,94856.69
2022-11-04T05:02:52.990Z,94851.66
2022-11-04T05:07:54.485Z,94830.25
2022-11-04T05:13:14.762Z,94836.91
2022-11-04T05:18:17.521Z,94833.00
2022-11-04T05:23:19.175Z,94840.09
2022-11-04T05:28:20.676Z,94822.19
2022-11-04T05:33:22.266Z,94811.22
2022-11-04T05:38:23.750Z,94824.22
2022-11-04T05:43:25.229Z,94830.44
2022-11-04T05:48:27.305Z,94840.28
2022-11-04T05:53:28.976Z,94847.00
2022-11-04T05:58:30.479Z,94854.88
2022-11-04T06:03:32.065Z,94876.78
2022-11-04T06:08:33.662Z,94889.66
2022-11-04T06:13:35.243Z,94872.47
2022-11-04T06:18:36.822Z,94870.22
2022-11-04T06:23:38.489Z,94877.59
2022-11-04T06:28:39.990Z,94895.56
2022-11-04T06:33:41.680Z,94893.25
2022-11-04T06:38:43.510Z,94910.09
2022-11-04T06:43:45.144Z,94892.97
2022-11-04T06:48:46.638Z,94882.91
2022-11-04T06:53:48.193Z,94901.75
2022-11-04T06:58:51.231Z,94902.06
2022-11-04T07:03:58.043Z,94889.59
2022-11-04T07:09:01.425Z,94889.59
2022-11-04T07:14:03.018Z,94893.44
2022-11-04T07:19:05.209Z,94886.09
2022-11-04T07:24:07.335Z,94885.31
2022-11-04T07:29:11.049Z,94887.25
2022-11-04T07:34:12.525Z,94862.72
2022-11-04T07:39:14.098Z,94854.91
2022-11-04T07:44:15.973Z,94853.88
2022-11-04T07:49:17.503Z,94868.41
2022-11-04T07:54:19.030Z,94875.84
2022-11-04T07:59:20.535Z,94877.78
2022-11-04T08:04:22.146Z,94887.22
2022-11-04T08:09:23.739Z,94893.13
2022-11-04T08:14:25.306Z,94920.06
2022-11-04T08:19:27.605Z,94935.66
2022-11-04T08:24:29.145Z,94953.25
2022-11-04T08:29:30.736Z,94967.34
2022-11-04T08:34:32.213Z,94940.81
2022-11-04T08:39:34.266Z,94938.09
2022-11-04T08:44:36.895Z,94938.09
2022-11-04T08:49:39.763Z,94950.22
2022-11-04T08:54:41.328Z,94947.50
2022-11-04T08:59:42.816Z,94924.84
2022-11-04T09:04:44.296Z,94918.16
2022-11-04T09:09:45.828Z,94909.56
2022-11-04T09:14:47.482Z,94908.34
2022-11-04T09:19:49.174Z,94909.47
2022-11-04T09:24:50.678Z,94911.81
2022-11-04T09:29:52.191Z,94912.94
2022-11-04T09:34:53.727Z,94903.97
2022-11-04T09:39:55.274Z,94909.97
2022-11-04T09:45:20.486Z,94906.16
2022-11-04T09:50:25.717Z,94895.72
2022-11-04T09:56:02.804Z,94891.84
2022-11-04T10:01:28.238Z,94880.94
2022-11-04T10:07:14.055Z,94880.66
2022-11-04T10:12:49.976Z,94868.19
2022-11-04T10:18:18.794Z,94872.81
2022-11-04T10:23:24.773Z,94863.00
2022-11-04T10:28:42.425Z,94879.78
2022-11-04T10:33:47.928Z,94880.56
2022-11-04T10:38:57.602Z,94892.63
2022-11-04T10:44:06.910Z,94896.84
2022-11-04T10:49:08.354Z,94875.81
2022-11-04T10:54:10.280Z,94880.06
2022-11-04T10:59:30.485Z,94875.81
2022-11-04T11:04:34.749Z,94875.00
2022-11-04T11:09:53.977Z,94869.53
2022-11-04T11:14:58.833Z,94856.28
2022-11-04T11:20:07.924Z,94852.78
2022-11-04T11:25:23.557Z,94845.72
2022-11-04T11:30:44.057Z,94836.38
2022-11-04T11:35:53.130Z,94832.84
2022-11-04T11:41:24.311Z,94847.19
2022-11-04T11:46:30.236Z,94832.72
2022-11-04T11:51:35.745Z,94849.97
2022-11-04T11:57:07.411Z,94842.53
2022-11-04T12:02:56.534Z,94854.63
2022-11-04T12:13:27.117Z,94866.28
2022-11-04T12:18:48.562Z,94877.50
2022-11-04T12:23:57.883Z,94874.84
2022-11-04T12:29:37.186Z,94880.78
2022-11-04T12:35:03.758Z,94882.41
2022-11-04T12:40:11.552Z,94877.25
2022-11-04T12:45:42.611Z,94871.88
2022-11-04T12:51:05.780Z,94875.00
2022-11-04T12:56:09.764Z,94893.66
2022-11-04T13:01:22.103Z,94884.22
2022-11-04T13:06:27.196Z,94880.94
2022-11-04T13:11:58.267Z,94881.63
2022-11-04T13:17:12.605Z,94878.09
2022-11-04T13:22:23.059Z,94885.00
2022-11-04T13:27:37.735Z,94885.72
2022-11-04T13:33:09.441Z,94885.72
2022-11-04T13:38:20.154Z,94887.97
2022-11-04T13:43:39.474Z,94905.59
2022-11-04T13:48:54.873Z,94913.38
2022-11-04T13:53:58.264Z,94927.34
2022-11-04T13:59:05.609Z,94929.25
2022-11-04T14:04:13.176Z,94931.91
2022-11-04T14:09:33.133Z,94929.19
2022-11-04T14:14:35.249Z,94929.94
2022-11-04T14:19:55.824Z,94930.72
2022-11-04T14:24:59.507Z,94923.72
2022-11-04T14:30:01.320Z,94930.72
2022-11-04T14:35:07.011Z,94936.19
2022-11-04T14:40:25.467Z,94938.59
2022-11-04T14:45:31.608Z,94943.28
2022-11-04T14:50:33.526Z,94954.59
2022-11-04T14:55:35.019Z,94959.66
2022-11-04T15:00:53.824Z,94963.16
2022-11-04T15:06:01.182Z,94971.38
2022-11-04T15:11:15.692Z,94979.94
2022-11-04T15:16:22.117Z,94979.13
2022-11-04T15:21:24.395Z,94979.88
2022-11-04T15:26:30.041Z,94981.84
2022-11-04T15:31:34.250Z,94981.09
2022-11-04T15:36:38.337Z,94982.69
2022-11-04T15:42:00.342Z,94983.44
2022-11-04T15:47:23.730Z,94995.22
2022-11-04T15:52:28.377Z,94997.19
2022-11-04T15:57:34.857Z,95003.84
2022-11-04T16:02:47.004Z,95004.28
2022-11-04T16:07:53.672Z,95000.41
2022-11-04T16:12:58.480Z,95006.31
2022-11-04T16:18:01.133Z,95006.72
2022-11-04T16:23:03.505Z,95001.66
2022-11-04T16:28:05.086Z,95013.44
2022-11-04T16:33:12.900Z,95011.88
2022-11-04T16:38:14.636Z,95020.53
2022-11-04T16:43:19.433Z,95016.59
2022-11-04T16:48:21.241Z,95020.09
2022-11-04T16:53:22.769Z,95020.88
2022-11-04T16:58:24.618Z,95028.31
2022-11-04T17:03:26.598Z,95029.06
2022-11-04T17:08:28.148Z,95038.50
2022-11-04T17:13:33.541Z,95031.47
2022-11-04T17:18:37.813Z,95036.16
2022-11-04T17:23:39.326Z,95040.88
2022-11-04T17:28:41.069Z,95045.97
2022-11-04T17:33:42.583Z,95050.31
2022-11-04T17:38:44.276Z,95056.97
2022-11-04T17:44:00.998Z,95064.06
2022-11-04T17:49:08.827Z,95067.63
2022-11-04T17:54:10.698Z,95062.63
2022-11-04T17:59:14.171Z,95065.78
2022-11-04T18:04:23.593Z,95068.50
2022-11-04T18:09:25.312Z,95086.13
2022-11-04T18:14:26.880Z,95083.78
2022-11-04T18:19:28.543Z,95086.16
2022-11-04T18:24:30.299Z,95100.25
2022-11-04T18:29:31.931Z,95097.56
2022-11-04T18:34:33.529Z,95104.63
2022-11-04T18:39:35.129Z,95102.72
2022-11-04T18:44:36.847Z,95107.06
2022-11-04T18:49:38.439Z,95118.78
2022-11-04T18:54:39.945Z,95118.41
2022-11-04T18:59:41.589Z,95123.09
2022-11-04T19:04:43.202Z,95126.59
2022-11-04T19:09:47.543Z,95136.00
2022-11-04T19:14:49.677Z,95141.06
2022-11-04T19:19:51.457Z,95152.78
2022-11-04T19:24:53.297Z,95159.03
2022-11-04T19:29:55.114Z,95162.53
2022-11-04T19:34:56.758Z,95173.09
2022-11-04T19:39:58.264Z,95170.78
2022-11-04T19:44:59.835Z,95174.28
2022-11-04T19:50:01.562Z,95184.47
2022-11-04T19:55:03.429Z,95203.25
2022-11-04T20:00:05.615Z,95217.31
2022-11-04T20:05:13.154Z,95222.06
2022-11-04T20:10:15.897Z,95232.63
2022-11-04T20:15:17.480Z,95238.88
2022-11-04T20:20:19.065Z,95240.47
2022-11-04T20:25:20.597Z,95244.78
2022-11-04T20:30:22.141Z,95245.59
2022-11-04T20:35:23.778Z,95258.53
2022-11-04T20:40:25.336Z,95255.06
2022-11-04T20:45:26.944Z,95262.53
2022-11-04T20:50:28.491Z,95274.28
2022-11-04T20:55:30.107Z,95279.38
2022-11-04T21:00:31.588Z,95283.63
2022-11-04T21:05:34.520Z,95291.44
2022-11-04T21:10:36.886Z,95296.91
2022-11-04T21:15:41.342Z,95279.38
2022-11-04T21:20:43.216Z,95300.03
2022-11-04T21:25:54.609Z,95295.00
2022-11-04T21:31:02.585Z,95293.03
2022-11-04T21:36:06.599Z,95299.28
2022-11-04T21:41:11.411Z,95306.69
2022-11-04T21:46:15.051Z,95314.53
2022-11-04T21:51:21.126Z,95319.63
2022-11-04T21:56:29.174Z,95321.19
2022-11-04T22:01:31.760Z,95316.59
2022-11-04T22:06:35.685Z,95329.50
2022-11-04T22:11:39.349Z,95326.41
2022-11-04T22:16:40.954Z,95327.22
2022-11-04T22:21:44.797Z,95321.44
2022-11-04T22:26:47.649Z,95322.22
2022-11-04T22:31:49.246Z,95332.41
2022-11-04T22:36:50.754Z,95325.38
2022-11-04T22:41:52.255Z,95339.06
2022-11-04T22:46:53.758Z,95340.63
2022-11-04T22:51:55.315Z,95347.25
2022-11-04T22:56:57.435Z,95342.19
2022-11-04T23:01:59.085Z,95340.28
2022-11-04T23:07:00.677Z,95340.69
2022-11-04T23:12:21.058Z,95347.78
2022-11-04T23:17:42.302Z,95351.31
2022-11-04T23:23:02.524Z,95353.66
2022-11-04T23:28:22.744Z,95361.44
2022-11-04T23:33:44.241Z,95356.38
2022-11-04T23:38:50.147Z,95355.97
2022-11-04T23:43:52.067Z,95348.16
2022-11-04T23:49:12.006Z,95363.78
2022-11-04T23:54:32.317Z,95370.81
2022-11-04T23:59:52.259Z,95373.94
